Airfield :
LOGIN :

Register | Disclaimer

   EN    FR    IT 

 










Legend :    VFR   Marginal VFR   IFR   Intensive IFR   Very Intensive IFR
Visi :
Ceiling :
>= 8 km
>= 3000ft
5 to 8 km
1000 to 3000 ft
1500m to 5 km
500 to 1000 ft
800 to 1500m
200 to 500 ft
< 800m
< 200 ft
Symbols :   Thunderstorms  Fog  Heavy snow  Heavy precipitations  Wind > 20 kt
SIGMETs :     Misc.  Thunderstorms  Icing  Turbulence  Mountain Waves  Volcanic Ashes







- Airport Elevation : 614 ft
- IATA code : CRL


EBCI - Charleroi

CURRENT METAR :
  • 201750Z 06011KT CAVOK 17/04 Q1023 NOSIG

EXPIRED METARs :
  • 201720Z 06013KT CAVOK 18/03 Q1023 NOSIG
  • 201650Z 05012KT CAVOK 19/04 Q1023 NOSIG
  • 201620Z 06011KT CAVOK 20/03 Q1023 NOSIG
  • 201550Z 06012KT CAVOK 20/04 Q1024 NOSIG
  • 201520Z 06012KT CAVOK 20/03 Q1024 NOSIG
  • 201450Z 06012KT CAVOK 20/03 Q1024 NOSIG

TAF TAF EBCI
Valid from the 20 at 18:00 until the 22 at 00:00 UTC


201707Z 2018/2124 10007KT CAVOK
No reported NOTAMs for that airfield.



MET'MAP, your aeronautical weather chart ! - Copyright ORBIFLY December 2007 - Disclaimer

ORBIFLY MET'MAP TEAM :

Programming & Development : Alexandra Zaïnal
Concept & Development : Baudouin d'Aumeries
Co-Development & Prog : Marc-Olivier Méhu
Technical & hardware support : Manuel Goepfert

Contact : metmap@orbifly.com




SOURCES & CREDITS :

   NOAA